Time;durP1;ratioP1;P1;durP2;ratioP2;P2;SDS_P1;SDS_P2;PMS_P1;PMS_P2;Temp;Humidity;BMP_temperature;BMP_pressure;BME280_temperature;BME280_humidity;BME280_pressure;Samples;Min_cycle;Max_cycle;Signal;HPM_P1;HPM_P2
2022/06/23 00:01:59;;;;;;;5.77;4.07;;;20.20;76.00;;;;;;4955997;29;20827;-82
2022/06/23 00:04:29;;;;;;;3.27;2.43;;;20.30;75.80;;;;;;4955857;29;20422;-82
2022/06/23 00:06:59;;;;;;;3.00;2.57;;;20.30;76.30;;;;;;4955880;29;20517;-82
2022/06/23 00:09:31;;;;;;;4.50;3.10;;;20.30;76.40;;;;;;4955808;29;20517;-79
2022/06/23 00:11:58;;;;;;;3.03;2.73;;;20.30;76.70;;;;;;4955822;29;20791;-82
2022/06/23 00:14:25;;;;;;;6.57;2.93;;;20.30;78.10;;;;;;4955754;29;20421;-82
2022/06/23 00:16:51;;;;;;;4.87;2.90;;;20.20;79.50;;;;;;4955459;29;20564;-82
2022/06/23 00:19:16;;;;;;;8.67;3.00;;;20.20;78.90;;;;;;4955596;29;20997;-82
2022/06/23 00:21:52;;;;;;;3.23;2.53;;;20.20;80.60;;;;;;4955470;28;20189;-81
2022/06/23 00:24:23;;;;;;;7.57;2.80;;;20.10;81.50;;;;;;4955633;29;20638;-83
2022/06/23 00:26:49;;;;;;;4.03;2.60;;;20.00;80.90;;;;;;4955306;29;20441;-84
2022/06/23 00:29:18;;;;;;;2.60;2.37;;;20.00;80.00;;;;;;4955543;29;20839;-84
2022/06/23 00:31:52;;;;;;;2.47;2.20;;;20.00;79.30;;;;;;4955299;29;21048;-84
2022/06/23 00:34:22;;;;;;;6.93;2.90;;;20.00;81.00;;;;;;4955418;29;20440;-84
2022/06/23 00:36:50;;;;;;;2.40;2.20;;;20.00;80.90;;;;;;4955159;29;20509;-84
2022/06/23 00:39:30;;;;;;;4.50;2.80;;;20.00;79.60;;;;;;4955321;29;20418;-84
2022/06/23 00:41:56;;;;;;;4.90;3.17;;;20.00;78.60;;;;;;4955310;29;20427;-84
2022/06/23 00:44:40;;;;;;;5.63;3.00;;;20.10;78.10;;;;;;4955235;29;20985;-78
2022/06/23 00:47:13;;;;;;;4.67;2.40;;;20.20;78.10;;;;;;4955127;29;20893;-79
2022/06/23 00:49:59;;;;;;;3.90;2.53;;;20.10;78.50;;;;;;4954932;29;20422;-77
2022/06/23 00:52:44;;;;;;;5.97;2.63;;;20.20;78.20;;;;;;4938593;29;20438;-77
2022/06/23 00:55:24;;;;;;;4.20;3.10;;;20.10;79.10;;;;;;4954878;29;20422;-77
2022/06/23 00:57:57;;;;;;;4.03;2.53;;;20.00;79.50;;;;;;4954854;29;20460;-77
2022/06/23 01:00:31;;;;;;;5.30;3.17;;;20.00;80.60;;;;;;4954874;29;20518;-78
2022/06/23 01:03:25;;;;;;;4.77;3.10;;;19.90;88.90;;;;;;4954929;29;20451;-78
2022/06/23 01:05:53;;;;;;;3.90;3.07;;;19.90;91.50;;;;;;4949139;29;20449;-81
2022/06/23 01:08:56;;;;;;;3.77;3.30;;;19.90;91.40;;;;;;4954772;29;20434;-82
2022/06/23 01:11:49;;;;;;;3.60;3.00;;;19.80;92.30;;;;;;4954750;29;20458;-86
2022/06/23 01:14:39;;;;;;;4.33;3.30;;;19.70;92.20;;;;;;4954180;29;20433;-86
2022/06/23 01:17:20;;;;;;;4.30;2.90;;;19.50;92.30;;;;;;4954639;29;20476;-82
2022/06/23 01:20:16;;;;;;;4.47;3.03;;;19.40;93.00;;;;;;4954727;29;20422;-82
2022/06/23 01:22:48;;;;;;;2.77;2.57;;;19.30;93.60;;;;;;4955040;29;20441;-87
2022/06/23 04:32:18;;;;;;;7.63;4.90;;;17.90;99.90;;;;;;5178934;23;20552;-75
2022/06/23 04:35:00;;;;;;;5.30;4.77;;;17.90;99.90;;;;;;4955647;29;20434;-77
2022/06/23 04:37:37;;;;;;;7.93;4.80;;;17.90;99.90;;;;;;4955088;29;20516;-77
2022/06/23 04:40:18;;;;;;;8.20;4.20;;;18.00;99.90;;;;;;4955514;29;20449;-81
2022/06/23 04:42:51;;;;;;;7.00;4.57;;;18.10;99.90;;;;;;4954459;29;20432;-83
2022/06/23 04:45:47;;;;;;;7.73;5.10;;;18.20;99.90;;;;;;4956001;29;20426;-89
2022/06/23 04:48:24;;;;;;;4.83;4.43;;;18.20;99.90;;;;;;4954568;29;20944;-91
2022/06/23 04:51:03;;;;;;;5.00;4.40;;;18.30;99.90;;;;;;4952933;29;20425;-91
2022/06/23 04:53:55;;;;;;;6.60;5.10;;;18.40;99.90;;;;;;4955437;29;20430;-93
2022/06/23 04:56:33;;;;;;;7.00;4.57;;;18.50;99.90;;;;;;4957589;29;20477;-94
2022/06/23 04:59:30;;;;;;;7.63;4.50;;;18.60;99.90;;;;;;4958323;29;20796;-94
2022/06/23 05:02:12;;;;;;;5.63;4.70;;;18.70;99.90;;;;;;4949458;29;20446;-91
2022/06/23 05:04:44;;;;;;;7.10;4.10;;;18.80;99.90;;;;;;4957386;29;20815;-94
2022/06/23 05:07:25;;;;;;;5.83;4.50;;;18.90;99.90;;;;;;4958335;28;20851;-96
2022/06/23 05:09:55;;;;;;;7.20;4.40;;;19.10;99.90;;;;;;4961381;29;20437;-92
2022/06/23 05:12:31;;;;;;;5.63;4.17;;;19.20;99.90;;;;;;4955950;29;20437;-95
2022/06/23 05:15:08;;;;;;;6.50;4.10;;;19.30;99.90;;;;;;4955133;29;20453;-94
2022/06/23 05:17:39;;;;;;;9.03;4.30;;;19.40;99.90;;;;;;4954904;29;20628;-92
2022/06/23 05:20:06;;;;;;;7.27;4.73;;;19.50;99.90;;;;;;4952211;29;20422;-90
2022/06/23 05:22:36;;;;;;;5.60;4.37;;;19.60;99.90;;;;;;4954497;29;20456;-94
2022/06/23 05:25:34;;;;;;;10.70;4.90;;;19.60;99.90;;;;;;4951801;29;20533;-96
2022/06/23 05:28:04;;;;;;;11.43;5.30;;;19.70;99.90;;;;;;4963920;29;20419;-95
2022/06/23 05:30:31;;;;;;;6.90;4.70;;;19.90;99.90;;;;;;4959209;29;20929;-94
2022/06/23 05:33:15;;;;;;;4.83;4.27;;;20.00;99.90;;;;;;4962198;29;20441;-95
2022/06/23 05:35:52;;;;;;;7.50;4.37;;;20.10;99.90;;;;;;4953427;29;20533;-93
2022/06/23 05:38:32;;;;;;;7.73;5.27;;;20.20;99.90;;;;;;4953124;29;20493;-90
2022/06/23 05:41:03;;;;;;;6.63;4.40;;;20.30;99.90;;;;;;4950578;29;20433;-86
2022/06/23 05:43:33;;;;;;;4.30;3.90;;;20.50;99.90;;;;;;4952569;29;20473;-84
2022/06/23 05:46:02;;;;;;;4.90;4.33;;;20.70;99.90;;;;;;4950672;29;20457;-84
2022/06/23 05:48:42;;;;;;;5.90;3.37;;;20.80;99.90;;;;;;4953997;29;20449;-83
2022/06/23 05:51:20;;;;;;;4.73;4.33;;;20.90;99.90;;;;;;4954498;29;20430;-83
2022/06/23 05:54:15;;;;;;;6.65;3.80;;;21.10;99.90;;;;;;4954025;29;20427;-85
2022/06/23 05:56:49;;;;;;;4.50;4.10;;;21.40;99.90;;;;;;4954601;29;20225;-86
2022/06/23 05:59:47;;;;;;;8.17;4.40;;;21.60;99.90;;;;;;4955101;29;20424;-88
2022/06/23 06:02:24;;;;;;;9.03;3.73;;;21.80;99.90;;;;;;4955121;29;20517;-88
2022/06/23 06:04:53;;;;;;;3.83;3.27;;;22.00;99.90;;;;;;4955095;29;20424;-88
2022/06/23 06:07:24;;;;;;;7.33;4.20;;;22.10;99.90;;;;;;4955011;29;20431;-88
2022/06/23 06:09:51;;;;;;;6.20;4.27;;;22.20;99.90;;;;;;4954595;29;20450;-88
2022/06/23 06:12:29;;;;;;;4.37;3.70;;;22.20;99.90;;;;;;4955062;29;20422;-88
2022/06/23 06:15:01;;;;;;;4.90;3.57;;;22.40;99.90;;;;;;4954579;29;20925;-89
2022/06/23 06:17:29;;;;;;;4.13;3.67;;;22.40;99.90;;;;;;4954784;29;20533;-88
2022/06/23 06:20:05;;;;;;;5.23;3.57;;;22.50;99.90;;;;;;4958176;28;20461;-89
2022/06/23 06:22:40;;;;;;;4.40;3.50;;;22.70;99.90;;;;;;4958656;29;20540;-86
2022/06/23 06:25:14;;;;;;;4.00;3.60;;;22.80;99.90;;;;;;4959394;29;20421;-87
2022/06/23 06:27:39;;;;;;;7.07;3.60;;;22.90;99.90;;;;;;4958273;29;20489;-89
2022/06/23 06:30:08;;;;;;;8.37;4.10;;;23.20;99.60;;;;;;4958718;29;20178;-89
2022/06/23 06:32:37;;;;;;;8.00;3.60;;;23.30;99.50;;;;;;4958411;29;20621;-77
2022/06/23 06:35:21;;;;;;;4.93;3.97;;;23.40;99.90;;;;;;4958599;29;20429;-81
2022/06/23 06:38:00;;;;;;;7.03;3.63;;;23.50;99.90;;;;;;4958309;29;21066;-82
2022/06/23 06:40:26;;;;;;;6.80;4.00;;;23.50;99.90;;;;;;4958458;29;20783;-82
2022/06/23 06:42:57;;;;;;;4.60;3.60;;;23.70;99.10;;;;;;4958490;29;20437;-84
2022/06/23 06:45:27;;;;;;;5.53;4.27;;;23.80;99.00;;;;;;4958840;29;20174;-85
2022/06/23 06:47:53;;;;;;;5.70;3.70;;;23.90;98.30;;;;;;4959297;29;20436;-83
2022/06/23 06:50:18;;;;;;;5.37;3.23;;;23.90;98.70;;;;;;4958218;29;20864;-84
2022/06/23 06:52:47;;;;;;;4.17;3.70;;;24.10;98.90;;;;;;4958302;29;20166;-88
2022/06/23 06:55:23;;;;;;;5.00;3.87;;;24.10;97.20;;;;;;4958174;29;20174;-88
2022/06/23 06:58:12;;;;;;;4.00;3.53;;;24.10;98.20;;;;;;4958070;29;20508;-84
2022/06/23 07:00:44;;;;;;;6.30;3.70;;;24.20;97.70;;;;;;4938349;29;20442;-90
2022/06/23 07:03:13;;;;;;;4.17;3.77;;;24.10;96.90;;;;;;4938883;29;20521;-91
2022/06/23 07:05:38;;;;;;;5.47;3.83;;;24.30;98.40;;;;;;4938792;29;20443;-87
2022/06/23 07:08:31;;;;;;;4.07;3.67;;;24.60;95.90;;;;;;4939235;29;20433;-89
2022/06/23 07:11:00;;;;;;;7.03;5.00;;;24.70;95.10;;;;;;4939102;29;20210;-86
2022/06/23 07:13:36;;;;;;;5.37;4.50;;;24.90;95.50;;;;;;4938680;29;20427;-86
2022/06/23 07:16:26;;;;;;;6.00;3.53;;;25.00;95.60;;;;;;4938566;29;20487;-85
2022/06/23 07:19:19;;;;;;;11.80;4.70;;;25.00;96.00;;;;;;4938815;29;20431;-84
2022/06/23 07:22:02;;;;;;;10.60;5.50;;;25.10;97.50;;;;;;4938999;29;20860;-87
2022/06/23 07:24:43;;;;;;;5.20;4.00;;;25.20;96.40;;;;;;4938371;29;20419;-87
2022/06/23 07:27:21;;;;;;;4.13;3.23;;;25.40;97.20;;;;;;4938593;29;20430;-86
2022/06/23 07:29:57;;;;;;;7.43;3.87;;;25.50;95.10;;;;;;4937892;29;20430;-86
2022/06/23 07:32:32;;;;;;;8.70;4.10;;;25.50;95.50;;;;;;4938392;29;20475;-87
2022/06/23 07:35:31;;;;;;;6.50;3.87;;;25.50;98.10;;;;;;4938500;29;20427;-85
2022/06/23 07:38:04;;;;;;;11.70;4.00;;;25.60;96.80;;;;;;4938527;29;20483;-88
2022/06/23 07:40:39;;;;;;;7.43;3.60;;;25.80;95.60;;;;;;4938709;29;20431;-90
2022/06/23 07:43:24;;;;;;;6.93;3.90;;;25.90;96.00;;;;;;4938414;29;20433;-88
2022/06/23 07:45:58;;;;;;;6.80;3.83;;;26.00;95.10;;;;;;4938183;29;20510;-88
2022/06/23 07:48:26;;;;;;;4.00;3.57;;;26.20;94.30;;;;;;4938044;29;20426;-89
2022/06/23 07:50:54;;;;;;;5.10;3.47;;;26.30;94.40;;;;;;4938106;29;20431;-88
2022/06/23 07:53:23;;;;;;;6.57;3.60;;;26.30;93.60;;;;;;4920959;29;20445;-89
2022/06/23 07:55:49;;;;;;;9.50;4.70;;;26.40;93.70;;;;;;4938067;29;20514;-88
2022/06/23 07:58:19;;;;;;;7.83;4.63;;;26.50;92.80;;;;;;4945465;29;20477;-88
2022/06/23 08:00:47;;;;;;;4.93;3.87;;;26.70;91.40;;;;;;4940008;29;20231;-88
2022/06/23 08:03:20;;;;;;;7.40;5.03;;;26.60;92.10;;;;;;4938077;29;20446;-87
2022/06/23 08:05:53;;;;;;;8.33;4.53;;;26.60;92.30;;;;;;4938230;29;20434;-87
2022/06/23 08:08:22;;;;;;;10.97;5.63;;;26.70;91.70;;;;;;4938151;29;20419;-88
2022/06/23 08:12:53;;;;;;;4.77;4.00;;;26.70;91.30;;;;;;4922285;29;20506;-82
2022/06/23 08:13:41;;;;;;;8.33;4.40;;;26.70;91.90;;;;;;4937565;29;20833;-82
2022/06/23 08:19:09;;;;;;;6.30;4.20;;;27.00;92.00;;;;;;4936949;29;20927;-83
2022/06/23 08:21:55;;;;;;;5.10;3.97;;;27.10;91.70;;;;;;4937467;29;20566;-82
2022/06/23 08:24:23;;;;;;;4.83;4.13;;;27.30;91.10;;;;;;4937424;29;20768;-81
2022/06/23 08:27:09;;;;;;;6.63;4.80;;;26.90;90.90;;;;;;4937420;29;20434;-81
2022/06/23 08:29:45;;;;;;;5.07;4.57;;;26.90;91.50;;;;;;4937284;29;20437;-82
2022/06/23 08:32:13;;;;;;;5.73;4.87;;;27.10;91.50;;;;;;4937236;29;20458;-82
2022/06/23 08:34:43;;;;;;;8.63;4.23;;;27.20;91.20;;;;;;4937272;29;20491;-80
2022/06/23 08:37:19;;;;;;;4.93;4.27;;;27.20;88.70;;;;;;4937059;29;20478;-80
2022/06/23 08:39:58;;;;;;;10.53;5.40;;;27.30;89.30;;;;;;4937343;29;20434;-82
2022/06/23 08:42:35;;;;;;;4.83;4.43;;;27.40;85.60;;;;;;4937025;29;20501;-81
2022/06/23 08:45:35;;;;;;;10.20;4.60;;;27.50;84.60;;;;;;4937251;29;20477;-80
2022/06/23 08:48:07;;;;;;;6.00;4.53;;;27.60;87.60;;;;;;4936988;29;20935;-81
2022/06/23 08:50:42;;;;;;;4.40;4.07;;;27.70;87.00;;;;;;4936897;29;20442;-81
2022/06/23 08:53:43;;;;;;;3.80;3.50;;;27.80;86.70;;;;;;4937430;29;20434;-84
2022/06/23 08:56:24;;;;;;;4.60;4.20;;;27.70;88.50;;;;;;4937058;29;20862;-85
2022/06/23 08:59:14;;;;;;;5.40;4.40;;;27.90;89.30;;;;;;4936749;29;20446;-85
2022/06/23 09:01:59;;;;;;;5.93;3.90;;;28.10;87.80;;;;;;4936581;29;20462;-90
2022/06/23 09:04:43;;;;;;;4.00;3.60;;;28.20;82.40;;;;;;4920164;29;20651;-90
2022/06/23 09:07:39;;;;;;;4.03;3.63;;;28.30;79.40;;;;;;4938041;29;20423;-89
2022/06/23 09:10:21;;;;;;;6.27;3.53;;;28.40;78.00;;;;;;4937036;29;20438;-89
2022/06/23 09:13:09;;;;;;;4.00;3.70;;;28.50;77.10;;;;;;4939034;29;20574;-87
2022/06/23 09:16:03;;;;;;;4.50;4.07;;;28.50;76.60;;;;;;4937343;29;20442;-88
2022/06/23 09:18:56;;;;;;;5.00;3.47;;;28.60;75.50;;;;;;4937598;29;20958;-87
2022/06/23 09:21:31;;;;;;;4.50;4.17;;;28.70;74.20;;;;;;4937291;29;20455;-87
2022/06/23 09:24:19;;;;;;;5.73;3.60;;;28.80;73.00;;;;;;4936914;29;20827;-88
2022/06/23 09:27:07;;;;;;;5.47;4.00;;;28.70;69.60;;;;;;4936630;29;20503;-85
2022/06/23 09:29:55;;;;;;;6.67;4.23;;;28.80;69.90;;;;;;4936396;29;20435;-86
2022/06/23 09:32:50;;;;;;;5.40;4.30;;;28.90;70.20;;;;;;4938585;29;20476;-86
2022/06/23 09:35:44;;;;;;;7.30;3.33;;;28.90;68.20;;;;;;4937239;29;21020;-85
2022/06/23 09:38:37;;;;;;;4.10;3.80;;;29.00;70.00;;;;;;4936662;29;20490;-85
2022/06/23 09:41:37;;;;;;;4.33;4.03;;;29.10;70.00;;;;;;4936686;29;20467;-85
2022/06/23 09:44:22;;;;;;;9.57;3.83;;;29.10;70.60;;;;;;4936181;29;20434;-86
2022/06/23 09:46:51;;;;;;;4.50;3.83;;;29.20;66.30;;;;;;4936230;29;20435;-85
2022/06/23 09:49:16;;;;;;;3.30;3.10;;;29.30;64.80;;;;;;4936419;29;20429;-85
2022/06/23 09:52:08;;;;;;;4.37;3.97;;;29.30;62.00;;;;;;4937166;29;20518;-84
2022/06/23 09:55:04;;;;;;;4.47;3.60;;;29.40;66.10;;;;;;4927441;29;20183;-83
2022/06/23 09:58:00;;;;;;;5.20;3.40;;;29.40;61.60;;;;;;4935854;29;20509;-83
2022/06/23 10:00:51;;;;;;;6.10;3.80;;;29.50;61.20;;;;;;4935799;29;20523;-82
2022/06/23 10:03:24;;;;;;;4.23;3.93;;;29.60;59.60;;;;;;4935906;29;20435;-82
2022/06/23 10:06:20;;;;;;;5.63;4.10;;;29.60;59.40;;;;;;4936249;29;20418;-83
2022/06/23 10:09:17;;;;;;;4.60;4.20;;;29.60;59.10;;;;;;4935755;29;21054;-83
2022/06/23 10:12:22;;;;;;;11.47;4.57;;;29.50;60.30;;;;;;4935853;29;20430;-83
2022/06/23 10:15:02;;;;;;;5.83;3.63;;;29.60;60.30;;;;;;4932481;29;20438;-83
2022/06/23 10:18:00;;;;;;;4.60;4.10;;;29.50;59.10;;;;;;4935684;29;20557;-82
2022/06/23 10:21:02;;;;;;;6.90;4.10;;;29.60;58.80;;;;;;4935689;29;20419;-84
2022/06/23 10:23:54;;;;;;;8.70;3.50;;;29.70;59.30;;;;;;4935605;29;20422;-83
2022/06/23 10:26:55;;;;;;;4.60;4.00;;;29.60;60.20;;;;;;4935483;29;20427;-80
2022/06/23 10:29:50;;;;;;;4.97;3.90;;;29.70;59.00;;;;;;4935566;29;20439;-81
2022/06/23 10:32:34;;;;;;;4.73;4.20;;;29.80;61.00;;;;;;4915182;29;20499;-82
2022/06/23 10:35:14;;;;;;;6.60;3.97;;;29.90;58.30;;;;;;4916666;29;20419;-82
2022/06/23 10:38:18;;;;;;;6.73;3.73;;;29.90;59.10;;;;;;4916553;29;20482;-81
2022/06/23 10:41:21;;;;;;;6.93;4.00;;;30.00;56.50;;;;;;4914311;29;20432;-83
2022/06/23 10:44:31;;;;;;;4.10;3.73;;;30.10;57.70;;;;;;4916644;29;20451;-82
2022/06/23 10:47:19;;;;;;;5.60;3.93;;;30.20;53.50;;;;;;4914282;29;20911;-82
2022/06/23 10:50:03;;;;;;;5.80;4.40;;;30.20;54.30;;;;;;4914354;29;20444;-81
2022/06/23 10:53:02;;;;;;;4.00;3.70;;;30.30;54.70;;;;;;4915973;29;20464;-81
2022/06/23 10:55:43;;;;;;;4.20;3.80;;;30.40;54.00;;;;;;4916360;29;20427;-80
2022/06/23 10:58:29;;;;;;;10.33;3.57;;;30.40;54.90;;;;;;4916488;29;20531;-81
2022/06/23 11:01:07;;;;;;;7.67;4.03;;;30.40;54.20;;;;;;4916446;29;20536;-80
2022/06/23 11:03:52;;;;;;;8.13;3.47;;;30.40;53.90;;;;;;4916384;29;20443;-80
2022/06/23 11:06:50;;;;;;;3.80;3.50;;;30.60;52.80;;;;;;4918344;29;20796;-80
2022/06/23 11:09:24;;;;;;;4.33;3.93;;;30.60;53.90;;;;;;4918301;29;20440;-80
2022/06/23 11:12:27;;;;;;;4.87;3.97;;;30.70;52.70;;;;;;4919840;29;20506;-78
2022/06/23 11:15:10;;;;;;;7.67;4.17;;;30.70;53.40;;;;;;4917633;29;20436;-84
2022/06/23 11:18:06;;;;;;;4.77;3.60;;;30.50;54.10;;;;;;4919506;29;20983;-88
2022/06/23 11:20:54;;;;;;;4.67;4.00;;;30.60;54.20;;;;;;4919522;29;20431;-84
2022/06/23 11:23:57;;;;;;;3.57;3.10;;;30.70;53.10;;;;;;4919435;29;20496;-83
2022/06/23 11:26:35;;;;;;;6.23;3.10;;;30.70;52.40;;;;;;4918333;29;21010;-84
2022/06/23 11:29:00;;;;;;;3.97;3.67;;;30.80;53.00;;;;;;4919575;29;20435;-83
2022/06/23 11:32:04;;;;;;;3.97;3.67;;;30.80;52.30;;;;;;4926299;29;20470;-82
2022/06/23 11:35:01;;;;;;;4.53;4.13;;;30.80;51.60;;;;;;4931977;29;20206;-82
2022/06/23 11:37:54;;;;;;;5.20;3.60;;;30.80;51.50;;;;;;4938297;29;20490;-82
2022/06/23 11:40:34;;;;;;;4.07;3.67;;;31.00;51.30;;;;;;4938262;29;20423;-84
2022/06/23 11:43:13;;;;;;;4.47;4.07;;;30.90;50.00;;;;;;4939273;29;20427;-86
2022/06/23 11:46:06;;;;;;;9.23;3.53;;;31.10;49.50;;;;;;4938454;29;20414;-87
2022/06/23 11:48:44;;;;;;;4.20;3.77;;;31.20;50.50;;;;;;4938938;29;20797;-90
2022/06/23 11:51:37;;;;;;;5.30;4.10;;;31.30;50.50;;;;;;4939018;29;20950;-86
2022/06/23 11:54:05;;;;;;;4.30;3.83;;;31.30;49.00;;;;;;4939471;29;20855;-84
2022/06/23 11:56:38;;;;;;;3.70;3.40;;;31.30;50.00;;;;;;4937630;29;20463;-85
2022/06/23 11:59:18;;;;;;;3.37;3.17;;;31.30;51.00;;;;;;4938005;29;20442;-85
2022/06/23 12:01:44;;;;;;;3.43;3.23;;;31.40;49.20;;;;;;4938085;29;20420;-84
2022/06/23 12:04:28;;;;;;;7.20;4.53;;;31.50;48.60;;;;;;4937871;29;20789;-85
2022/06/23 12:07:12;;;;;;;3.70;3.40;;;31.40;47.60;;;;;;4937789;29;20433;-85
2022/06/23 12:10:18;;;;;;;7.40;3.60;;;31.50;48.70;;;;;;4937762;29;20932;-84
2022/06/23 12:12:47;;;;;;;5.40;3.70;;;31.60;50.00;;;;;;4901075;29;20456;-84
2022/06/23 12:15:17;;;;;;;3.83;2.93;;;31.70;49.70;;;;;;4934737;29;20435;-79
2022/06/23 12:17:48;;;;;;;4.40;4.00;;;31.80;49.40;;;;;;4937360;29;20480;-82
2022/06/23 12:20:42;;;;;;;6.80;3.97;;;32.00;48.00;;;;;;4937527;29;20426;-84
2022/06/23 12:23:22;;;;;;;3.70;3.37;;;32.00;46.60;;;;;;4940187;29;20449;-85
2022/06/23 12:26:12;;;;;;;4.30;3.40;;;31.90;46.50;;;;;;4956680;29;20422;-82
2022/06/23 12:28:49;;;;;;;4.80;3.37;;;31.90;47.20;;;;;;4956594;29;21015;-82
2022/06/23 12:31:18;;;;;;;3.70;3.40;;;31.80;47.50;;;;;;4956373;29;20458;-84
2022/06/23 12:33:49;;;;;;;4.30;3.90;;;31.90;48.60;;;;;;4956935;29;20566;-84
2022/06/23 12:36:47;;;;;;;6.77;3.83;;;32.10;47.20;;;;;;4956757;29;20812;-84
2022/06/23 12:39:27;;;;;;;5.70;5.10;;;32.10;45.70;;;;;;4955534;29;20469;-81
2022/06/23 12:41:59;;;;;;;8.43;4.30;;;32.10;45.70;;;;;;4956256;29;20571;-84
2022/06/23 12:44:36;;;;;;;4.67;4.30;;;32.00;46.20;;;;;;4956184;29;20521;-84
2022/06/23 12:47:11;;;;;;;3.90;3.60;;;32.00;46.30;;;;;;4954794;29;20422;-85
2022/06/23 12:49:55;;;;;;;5.70;3.90;;;32.10;47.20;;;;;;4954772;29;20426;-86
2022/06/23 12:52:37;;;;;;;5.40;3.90;;;32.10;47.30;;;;;;4955873;29;20422;-85
2022/06/23 12:55:30;;;;;;;3.47;3.20;;;32.10;46.30;;;;;;4955881;29;20422;-85
2022/06/23 12:58:10;;;;;;;3.93;3.63;;;32.10;46.80;;;;;;4956166;29;20477;-85
2022/06/23 13:01:08;;;;;;;3.80;3.40;;;32.10;47.10;;;;;;4938538;29;20426;-85
2022/06/23 13:03:50;;;;;;;4.27;3.87;;;32.20;46.60;;;;;;4955804;29;20422;-84
2022/06/23 13:06:19;;;;;;;3.67;3.37;;;32.20;45.90;;;;;;4956034;29;20434;-85
2022/06/23 13:09:10;;;;;;;4.67;3.53;;;32.10;46.10;;;;;;4954972;29;20431;-85
2022/06/23 13:11:50;;;;;;;3.93;3.63;;;32.20;46.50;;;;;;4955337;29;20454;-80
2022/06/23 13:14:23;;;;;;;8.50;3.93;;;32.30;46.50;;;;;;4955760;29;20426;-82
2022/06/23 13:17:34;;;;;;;7.88;4.18;;;32.40;45.10;;;;;;4954980;29;20451;-89
2022/06/23 13:20:22;;;;;;;3.90;3.57;;;32.40;45.70;;;;;;4956616;29;20245;-85
2022/06/23 13:23:09;;;;;;;4.13;3.70;;;32.40;45.40;;;;;;4956718;29;20462;-84
2022/06/23 13:25:41;;;;;;;5.13;3.80;;;32.40;45.10;;;;;;4955960;29;20414;-86
2022/06/23 13:28:29;;;;;;;5.70;3.50;;;32.40;44.90;;;;;;4954660;28;20426;-85
2022/06/23 13:30:59;;;;;;;9.00;4.60;;;32.50;45.30;;;;;;4955716;29;20568;-83
2022/06/23 13:33:41;;;;;;;4.80;3.80;;;32.40;45.50;;;;;;4955409;29;20430;-83
2022/06/23 13:36:24;;;;;;;10.00;4.00;;;32.50;45.70;;;;;;4955400;29;20501;-80
2022/06/23 13:39:04;;;;;;;6.10;4.47;;;32.50;44.90;;;;;;4955476;29;20477;-90
2022/06/23 13:41:41;;;;;;;10.53;4.20;;;32.50;45.00;;;;;;4954880;29;20429;-82
2022/06/23 13:44:28;;;;;;;3.37;3.07;;;32.60;44.70;;;;;;4938113;29;20461;-80
2022/06/23 13:47:04;;;;;;;5.33;3.67;;;32.70;44.20;;;;;;4955273;29;20444;-83
2022/06/23 13:49:49;;;;;;;3.77;3.47;;;32.80;43.40;;;;;;4955105;29;20544;-84
2022/06/23 13:52:33;;;;;;;6.27;3.80;;;32.80;44.40;;;;;;4955221;29;20438;-84
2022/06/23 13:55:18;;;;;;;4.83;3.53;;;32.70;45.20;;;;;;4955291;29;20476;-84
2022/06/23 13:58:07;;;;;;;4.03;3.13;;;32.80;43.70;;;;;;4955062;29;20481;-84
2022/06/23 14:00:42;;;;;;;3.13;2.83;;;32.80;43.10;;;;;;4955046;29;20421;-82
2022/06/23 14:03:14;;;;;;;4.97;3.53;;;32.80;43.60;;;;;;4955191;29;20448;-84
2022/06/23 14:05:44;;;;;;;4.40;3.90;;;32.90;42.60;;;;;;4954977;29;20425;-83
2022/06/23 14:08:21;;;;;;;4.13;3.77;;;32.70;43.60;;;;;;4955078;29;20755;-83
2022/06/23 14:11:08;;;;;;;4.90;4.43;;;32.70;45.20;;;;;;4955191;29;20422;-84
2022/06/23 14:13:43;;;;;;;4.57;3.57;;;32.70;46.20;;;;;;4955149;29;20442;-84
2022/06/23 14:16:40;;;;;;;3.90;3.60;;;32.80;47.60;;;;;;4954768;29;20458;-83
2022/06/23 14:19:34;;;;;;;4.83;4.40;;;32.80;44.60;;;;;;4934616;29;20484;-83
2022/06/23 14:22:27;;;;;;;4.07;3.77;;;32.80;45.10;;;;;;4954925;29;20513;-83
2022/06/23 14:25:03;;;;;;;8.80;4.33;;;32.80;44.70;;;;;;4954104;29;20438;-84
2022/06/23 14:27:51;;;;;;;9.63;4.00;;;33.00;43.50;;;;;;4954772;29;20449;-82
2022/06/23 14:30:39;;;;;;;4.33;3.47;;;33.00;43.70;;;;;;4954728;29;20437;-82
2022/06/23 14:33:09;;;;;;;4.07;3.77;;;33.00;44.60;;;;;;4955028;29;20429;-82
2022/06/23 14:35:49;;;;;;;6.60;3.20;;;33.00;44.70;;;;;;4955370;29;20431;-83
2022/06/23 14:38:36;;;;;;;4.70;4.30;;;33.00;44.40;;;;;;4955712;29;20805;-81
2022/06/23 14:41:21;;;;;;;4.00;3.60;;;33.00;45.00;;;;;;4959868;28;20960;-82
2022/06/23 14:44:17;;;;;;;5.80;3.90;;;33.00;47.20;;;;;;4941097;29;20903;-81
2022/06/23 14:47:05;;;;;;;4.80;4.17;;;33.10;45.60;;;;;;4962676;29;20794;-88
2022/06/23 14:49:39;;;;;;;4.10;3.70;;;33.10;44.60;;;;;;4946235;29;20475;-86
2022/06/23 14:52:28;;;;;;;4.37;3.80;;;33.20;44.30;;;;;;4961311;29;20760;-84
2022/06/23 14:55:38;;;;;;;4.87;3.60;;;33.20;44.30;;;;;;4952942;29;20843;-87
2022/06/23 14:58:18;;;;;;;3.73;3.43;;;33.20;45.60;;;;;;4960545;29;20477;-76
2022/06/23 15:01:21;;;;;;;7.27;4.07;;;33.20;45.60;;;;;;4958478;29;20453;-79
2022/06/23 15:04:05;;;;;;;9.53;3.53;;;33.20;44.20;;;;;;4958221;29;20968;-77
2022/06/23 15:06:44;;;;;;;4.47;3.97;;;33.20;43.80;;;;;;4957918;29;20512;-78
2022/06/23 15:09:18;;;;;;;5.27;4.33;;;33.20;43.00;;;;;;4957858;29;20443;-78
2022/06/23 15:11:56;;;;;;;4.90;3.90;;;33.10;43.70;;;;;;4940537;29;20436;-78
2022/06/23 15:14:40;;;;;;;4.33;3.33;;;33.00;43.40;;;;;;4957571;29;21041;-78
2022/06/23 15:17:32;;;;;;;6.47;4.80;;;33.00;43.50;;;;;;4957640;29;20837;-78
2022/06/23 15:20:20;;;;;;;6.37;3.90;;;33.00;43.40;;;;;;4957640;29;20445;-79
2022/06/23 15:23:12;;;;;;;4.85;3.60;;;32.90;42.90;;;;;;4956168;29;20450;-79
2022/06/23 15:26:13;;;;;;;4.00;3.70;;;32.80;44.90;;;;;;4957603;29;20171;-79
2022/06/23 15:29:00;;;;;;;3.80;3.50;;;32.80;44.70;;;;;;4957446;29;20944;-78
2022/06/23 15:31:28;;;;;;;5.43;3.93;;;32.90;43.80;;;;;;4957314;29;20472;-79
2022/06/23 15:34:06;;;;;;;4.07;3.73;;;32.90;43.80;;;;;;4957324;29;20567;-79
2022/06/23 15:36:46;;;;;;;4.00;3.70;;;32.70;44.20;;;;;;4957191;29;20485;-79
2022/06/23 15:39:35;;;;;;;5.67;4.10;;;32.70;44.10;;;;;;4957021;29;20438;-79
2022/06/23 15:42:04;;;;;;;7.00;4.13;;;32.60;44.80;;;;;;4957048;29;20484;-78
2022/06/23 15:44:48;;;;;;;3.67;3.37;;;32.70;43.80;;;;;;4957249;29;20446;-78
2022/06/23 15:47:33;;;;;;;4.40;4.00;;;32.70;43.50;;;;;;4957307;29;20434;-78
2022/06/23 15:50:20;;;;;;;4.10;3.53;;;32.70;44.30;;;;;;4957287;29;20514;-79
2022/06/23 15:53:04;;;;;;;4.67;3.97;;;32.60;45.00;;;;;;4956535;28;20426;-78
2022/06/23 15:55:35;;;;;;;4.37;4.07;;;32.50;45.50;;;;;;4956987;29;20421;-78
2022/06/23 15:58:23;;;;;;;6.43;4.17;;;32.60;43.30;;;;;;4957040;29;20477;-83
2022/06/23 16:00:56;;;;;;;3.83;3.53;;;32.50;45.00;;;;;;4956925;29;20426;-77
2022/06/23 16:03:31;;;;;;;4.57;4.17;;;32.60;43.40;;;;;;4956850;29;20426;-78
2022/06/23 16:06:01;;;;;;;6.03;3.80;;;32.50;43.50;;;;;;4956874;29;20425;-77
2022/06/23 16:08:53;;;;;;;11.50;4.10;;;32.60;42.60;;;;;;4956609;29;20418;-78
2022/06/23 16:11:27;;;;;;;3.63;3.33;;;32.50;43.40;;;;;;4946106;29;20457;-78
2022/06/23 16:13:56;;;;;;;4.37;3.90;;;32.60;42.50;;;;;;4956894;29;20434;-78
2022/06/23 16:16:29;;;;;;;4.13;3.73;;;32.70;42.20;;;;;;4956662;29;20489;-78
2022/06/23 16:18:58;;;;;;;4.97;4.53;;;32.60;42.00;;;;;;4956703;29;20474;-78
2022/06/23 16:21:35;;;;;;;5.43;3.97;;;32.50;43.40;;;;;;4956480;29;20480;-80
2022/06/23 16:24:14;;;;;;;5.20;4.70;;;32.50;43.30;;;;;;4955937;29;20464;-88
2022/06/23 16:26:51;;;;;;;3.90;3.60;;;32.50;43.00;;;;;;4955794;29;20430;-74
2022/06/23 16:29:21;;;;;;;8.63;4.90;;;32.40;43.50;;;;;;4955954;29;20466;-88
2022/06/23 16:32:05;;;;;;;6.03;4.00;;;32.40;43.80;;;;;;4955533;29;20469;-84
2022/06/23 16:34:57;;;;;;;4.57;4.13;;;32.50;43.00;;;;;;4955589;29;20461;-87
2022/06/23 16:37:43;;;;;;;4.20;3.80;;;32.40;44.20;;;;;;4955746;29;20484;-86
2022/06/23 16:40:42;;;;;;;5.33;4.27;;;32.40;44.30;;;;;;4955436;29;20426;-87
2022/06/23 16:43:19;;;;;;;5.43;4.27;;;32.40;43.30;;;;;;4954883;29;20438;-89
2022/06/23 16:46:23;;;;;;;6.00;4.23;;;32.30;44.30;;;;;;4955644;29;20845;-84
2022/06/23 16:49:39;;;;;;;7.03;3.80;;;32.20;45.10;;;;;;4954851;29;20438;-81
2022/06/23 16:52:15;;;;;;;3.87;3.47;;;32.20;43.80;;;;;;4952178;29;20430;-78
2022/06/23 16:54:52;;;;;;;4.63;4.23;;;32.10;43.40;;;;;;4955436;29;20425;-86
2022/06/23 16:57:27;;;;;;;7.87;3.07;;;32.10;42.70;;;;;;4954989;29;20473;-87
2022/06/23 17:00:06;;;;;;;6.87;3.77;;;32.20;41.80;;;;;;4955183;29;20428;-86
2022/06/23 17:02:58;;;;;;;7.33;3.40;;;32.20;41.90;;;;;;4955205;28;20524;-90
2022/06/23 17:05:37;;;;;;;3.33;2.93;;;32.20;41.30;;;;;;4947400;29;20521;-85
2022/06/23 17:08:21;;;;;;;4.07;3.63;;;32.10;41.60;;;;;;4955397;29;20433;-83